Craig Municipal Airport
KCRG : now visible

Airfield :











YOU CAN JOIN US ON...

 
LOGIN :

Register | Disclaimer

   EN    FR    IT 

 









Legend :    VFR   Marginal VFR   IFR   Intensive IFR   Very Intensive IFR
Visi :
Ceiling :
>= 8 km
>= 3000ft
5 to 8 km
1000 to 3000 ft
1500m to 5 km
500 to 1000 ft
800 to 1500m
200 to 500 ft
< 800m
< 200 ft
Symbols :   Thunderstorms  Fog  Heavy snow  Heavy precipitations  Wind > 20 kt






- Airport Elevation : 41 ft


KCRG - Craig Municipal

CURRENT METAR :
  • 301553Z 21006KT 10SM CLR 31/24 A3004 RMK AO2 SLP172 T03060244

EXPIRED METARs :
  • 301510Z 25005KT 10SM FEW018 29/24 A3006 RMK AO2 T02940244
  • 301453Z 21005KT 10SM SCT017 29/25 A3006 RMK AO2 SLP178 T02890250 53012
  • 301353Z 24006KT 10SM SCT013 28/25 A3004 RMK AO2 SLP173 T02830250

TAF KCRG
Valid from the 30 at 12:00 until the 31 at 12:00 UTC


301158Z 3012/3112 24004KT 6SM BR BKN008
FM301400 25006KT P6SM SCT020 SCT250
FM302000 16009KT P6SM SCT040 SCT250
FM310000 20011KT P6SM FEW090 SCT250
FM310600 24007KT P6SM FEW090 SCT250
KZJX FIR / North America



MET'MAP, your aeronautical weather chart ! - Copyright ORBIFLY December 2007 - Disclaimer

ORBIFLY MET'MAP TEAM :

Programming & Development : Alexandra Zaïnal
Concept & original design : Baudouin d'Aumeries
Assistance for programming : Marc-Olivier Méhu
Technical & hardware support : Manuel Goepfert

Contact : metmap@orbifly.com




SOURCES & CREDITS :

   NOAA       Earth
Advisory